Terminal Aerodrome Forecast
Issued by NWS

Home | Current Version | Previous Version | Graphics & Text | Print | Product List | Glossary On
Versions: 1 2 3 4 5 6 7 8 9 10 11 12 13 14 15 16 17 18 19 20 21 22 23
974
FTUS43 KICT 261141
TAFRSL
TAF
KRSL 261141Z 2612/2712 12004KT 5SM BR OVC005
      TEMPO 2612/2614 3SM BR OVC003
     FM261500 08011KT P6SM SCT008 BKN012
     FM261800 09012KT P6SM BKN030
     FM262000 08012KT P6SM VCTS SCT030 BKN050CB
     FM270100 02010KT P6SM VCSH SCT009 BKN015=

USA.gov is the U.S. government's official web portal to all federal, state and local government web resources and services.